createdAt,value
2019-05-29T00:02:20.539Z,6.40
2019-05-29T00:04:51.309Z,5.90
2019-05-29T00:07:22.411Z,6.10
2019-05-29T00:09:53.258Z,6.20
2019-05-29T00:12:24.036Z,6.37
2019-05-29T00:14:55.036Z,6.47
2019-05-29T00:17:26.291Z,6.13
2019-05-29T00:19:58.030Z,6.33
2019-05-29T00:22:29.093Z,6.73
2019-05-29T00:25:00.229Z,7.10
2019-05-29T00:27:31.612Z,6.90
2019-05-29T00:30:03.967Z,6.90
2019-05-29T00:32:35.874Z,6.97
2019-05-29T00:35:08.284Z,8.00
2019-05-29T00:37:41.034Z,7.80
2019-05-29T00:40:12.978Z,7.20
2019-05-29T00:42:44.360Z,7.13
2019-05-29T00:45:15.677Z,6.50
2019-05-29T00:47:46.429Z,6.97
2019-05-29T00:50:17.478Z,6.50
2019-05-29T00:52:48.583Z,7.10
2019-05-29T00:55:19.427Z,7.07
2019-05-29T00:57:50.469Z,6.80
2019-05-29T01:00:21.628Z,6.60
2019-05-29T01:02:52.694Z,6.40
2019-05-29T01:05:23.506Z,7.03
2019-05-29T01:07:54.802Z,6.90
2019-05-29T01:10:25.960Z,6.40
2019-05-29T01:12:56.826Z,6.83
2019-05-29T01:15:31.179Z,6.83
2019-05-29T01:18:02.249Z,6.90
2019-05-29T01:20:33.583Z,7.47
2019-05-29T01:23:04.438Z,7.20
2019-05-29T01:25:35.358Z,6.83
2019-05-29T01:28:06.283Z,7.30
2019-05-29T01:30:37.119Z,6.93
2019-05-29T01:33:07.901Z,6.40
2019-05-29T01:35:39.230Z,7.33
2019-05-29T01:38:10.332Z,7.70
2019-05-29T01:40:41.184Z,7.50
2019-05-29T01:43:12.057Z,7.50
2019-05-29T01:45:42.839Z,6.70
2019-05-29T01:48:13.702Z,6.40
2019-05-29T01:50:44.552Z,6.37
2019-05-29T01:53:15.610Z,6.40
2019-05-29T01:55:46.643Z,6.70
2019-05-29T01:58:18.050Z,6.43
2019-05-29T02:00:49.143Z,7.30
2019-05-29T02:03:20.181Z,6.80
2019-05-29T02:05:50.950Z,6.80
2019-05-29T02:08:22.145Z,7.47
2019-05-29T02:10:53.435Z,7.40
2019-05-29T02:13:24.272Z,7.23
2019-05-29T02:15:55.064Z,7.03
2019-05-29T02:18:26.983Z,7.40
2019-05-29T02:20:57.825Z,8.03
2019-05-29T02:23:28.695Z,7.03
2019-05-29T02:25:59.798Z,7.10
2019-05-29T02:28:30.918Z,7.33
2019-05-29T02:31:01.942Z,7.03
2019-05-29T02:33:33.195Z,7.53
2019-05-29T02:36:04.047Z,7.50
2019-05-29T02:38:35.057Z,6.90
2019-05-29T02:41:06.060Z,7.07
2019-05-29T02:43:36.864Z,7.30
2019-05-29T02:46:07.879Z,7.20
2019-05-29T02:48:38.746Z,7.17
2019-05-29T02:51:12.233Z,6.63
2019-05-29T02:53:42.903Z,7.60
2019-05-29T02:56:13.700Z,6.87
2019-05-29T02:58:44.478Z,6.87
2019-05-29T03:01:15.540Z,6.90
2019-05-29T03:03:46.328Z,6.53
2019-05-29T03:06:17.178Z,6.57
2019-05-29T03:08:48.032Z,6.67
2019-05-29T03:11:19.196Z,6.43
2019-05-29T03:13:50.288Z,5.70
2019-05-29T03:16:23.626Z,5.93
2019-05-29T03:18:54.528Z,5.60
2019-05-29T03:21:26.067Z,5.93
2019-05-29T03:23:57.216Z,5.17
2019-05-29T03:26:29.412Z,5.70
2019-05-29T03:29:00.772Z,5.60
2019-05-29T03:31:41.977Z,5.30
2019-05-29T03:34:04.703Z,5.73
2019-05-29T03:36:43.798Z,5.60
2019-05-29T03:39:08.765Z,5.60
2019-05-29T03:41:39.804Z,5.33
2019-05-29T03:44:11.163Z,5.47
2019-05-29T03:46:45.741Z,5.93
2019-05-29T03:49:15.217Z,5.70
2019-05-29T03:51:46.553Z,6.40
2019-05-29T03:54:17.669Z,6.17
2019-05-29T03:56:48.932Z,5.83
2019-05-29T03:59:20.952Z,6.00
2019-05-29T04:01:51.724Z,5.47
2019-05-29T04:04:22.508Z,5.40
2019-05-29T04:06:53.283Z,5.97
2019-05-29T04:09:24.361Z,6.10
2019-05-29T04:11:55.712Z,5.80
2019-05-29T04:14:27.531Z,5.73
2019-05-29T04:17:00.626Z,6.07
2019-05-29T04:19:34.311Z,6.13
2019-05-29T04:22:09.604Z,5.90
2019-05-29T04:24:41.115Z,6.17
2019-05-29T04:27:13.495Z,6.03
2019-05-29T04:29:44.323Z,5.47
2019-05-29T04:32:15.167Z,6.30
2019-05-29T04:34:45.961Z,5.93
2019-05-29T04:37:16.820Z,6.03
2019-05-29T04:39:47.612Z,6.43
2019-05-29T04:42:18.696Z,6.33
2019-05-29T04:44:49.717Z,6.37
2019-05-29T04:47:20.592Z,7.87
2019-05-29T04:49:51.400Z,5.90
2019-05-29T04:52:22.186Z,6.63
2019-05-29T04:54:53.230Z,4.80
2019-05-29T04:57:24.325Z,6.97
2019-05-29T04:59:55.349Z,5.70
2019-05-29T05:02:26.134Z,5.30
2019-05-29T05:04:57.171Z,6.57
2019-05-29T05:07:29.667Z,6.50
2019-05-29T05:10:00.892Z,6.10
2019-05-29T05:12:31.721Z,6.03
2019-05-29T05:15:02.805Z,6.20
2019-05-29T05:17:34.168Z,6.87
2019-05-29T05:20:06.148Z,6.90
2019-05-29T05:22:38.125Z,6.60
2019-05-29T05:25:09.071Z,7.27
2019-05-29T05:27:40.681Z,6.70
2019-05-29T05:30:11.598Z,7.33
2019-05-29T05:32:42.595Z,6.70
2019-05-29T05:35:14.472Z,6.80
2019-05-29T05:37:45.539Z,15.70
2019-05-29T05:40:16.524Z,7.50
2019-05-29T05:42:47.537Z,6.80
2019-05-29T05:45:18.718Z,7.07
2019-05-29T05:47:57.334Z,6.73
2019-05-29T05:50:23.049Z,6.97
2019-05-29T05:52:54.386Z,6.60
2019-05-29T05:55:25.259Z,6.90
2019-05-29T05:57:56.038Z,6.47
2019-05-29T06:00:31.874Z,6.47
2019-05-29T06:03:03.804Z,6.20
2019-05-29T06:05:36.098Z,6.53
2019-05-29T06:08:07.542Z,7.60
2019-05-29T06:10:38.399Z,7.90
2019-05-29T06:13:09.967Z,7.83
2019-05-29T06:15:41.003Z,7.30
2019-05-29T06:18:21.144Z,6.70
2019-05-29T06:20:44.604Z,6.83
2019-05-29T06:23:15.540Z,6.73
2019-05-29T06:25:46.393Z,6.23
2019-05-29T06:28:17.239Z,5.73
2019-05-29T06:30:48.492Z,6.10
2019-05-29T06:33:19.464Z,6.00
2019-05-29T06:35:50.509Z,6.37
2019-05-29T06:38:21.795Z,5.93
2019-05-29T06:40:52.722Z,5.80
2019-05-29T06:43:24.882Z,5.87
2019-05-29T06:45:56.502Z,7.00
2019-05-29T06:48:42.400Z,6.30
2019-05-29T06:51:00.951Z,6.87
2019-05-29T06:53:32.229Z,7.00
2019-05-29T06:56:03.625Z,6.90
2019-05-29T06:58:35.879Z,6.63
2019-05-29T07:01:06.965Z,6.47
2019-05-29T07:03:37.819Z,7.00
2019-05-29T07:06:08.726Z,6.80
2019-05-29T07:08:44.221Z,6.67
2019-05-29T07:11:12.339Z,6.30
2019-05-29T07:13:47.057Z,6.60
2019-05-29T07:16:17.204Z,6.50
2019-05-29T07:19:23.335Z,6.07
2019-05-29T07:21:21.184Z,5.60
2019-05-29T07:23:52.209Z,6.17
2019-05-29T07:26:23.074Z,6.60
2019-05-29T07:29:06.423Z,6.20
2019-05-29T07:31:26.322Z,6.00
2019-05-29T07:33:57.395Z,5.77
2019-05-29T07:36:28.587Z,5.57
2019-05-29T07:39:03.515Z,5.73
2019-05-29T07:41:32.735Z,5.60
2019-05-29T07:44:03.684Z,5.40
2019-05-29T07:46:35.028Z,5.40
2019-05-29T07:49:06.014Z,5.47
2019-05-29T07:51:38.138Z,5.27
2019-05-29T07:54:09.548Z,5.67
2019-05-29T07:56:40.725Z,4.97
2019-05-29T07:59:11.540Z,5.00
2019-05-29T08:01:42.892Z,5.20
2019-05-29T08:04:13.766Z,4.83
2019-05-29T08:06:50.737Z,4.73
2019-05-29T08:09:17.110Z,5.07
2019-05-29T08:11:50.004Z,5.00
2019-05-29T08:14:21.048Z,4.87
2019-05-29T08:16:51.930Z,5.00
2019-05-29T08:19:23.241Z,4.60
2019-05-29T08:21:54.614Z,4.50
2019-05-29T08:24:25.847Z,4.50
2019-05-29T08:26:57.302Z,4.60
2019-05-29T08:29:28.099Z,4.33
2019-05-29T08:31:59.212Z,4.30
2019-05-29T08:34:30.029Z,4.03
2019-05-29T08:37:07.002Z,4.40
2019-05-29T08:39:36.781Z,4.00
2019-05-29T08:42:22.656Z,3.90
2019-05-29T08:44:39.656Z,4.17
2019-05-29T08:47:11.208Z,4.40
2019-05-29T08:49:42.284Z,5.03
2019-05-29T08:52:13.422Z,4.63
2019-05-29T08:54:44.271Z,5.00
2019-05-29T08:57:15.386Z,5.10
2019-05-29T08:59:46.456Z,5.40
2019-05-29T09:02:17.306Z,4.77
2019-05-29T09:04:50.180Z,5.10
2019-05-29T09:07:22.207Z,5.57
2019-05-29T09:09:53.363Z,5.13
2019-05-29T09:12:24.234Z,5.30
2019-05-29T09:14:55.534Z,5.40
2019-05-29T09:17:26.622Z,4.60
2019-05-29T09:19:57.423Z,4.70
2019-05-29T09:22:28.191Z,4.37
2019-05-29T09:24:59.314Z,4.30
2019-05-29T09:27:31.256Z,4.00
2019-05-29T09:30:02.463Z,3.70
2019-05-29T09:32:49.382Z,4.00
2019-05-29T09:35:06.635Z,3.80
2019-05-29T09:37:37.786Z,3.57
2019-05-29T09:40:19.125Z,3.10
2019-05-29T09:42:50.217Z,3.27
2019-05-29T09:45:21.639Z,3.40
2019-05-29T09:47:52.701Z,3.10
2019-05-29T09:50:25.567Z,3.00
2019-05-29T09:52:57.202Z,3.10
2019-05-29T09:55:29.028Z,3.33
2019-05-29T09:58:00.719Z,3.13
2019-05-29T10:00:31.574Z,3.13
2019-05-29T10:03:03.784Z,3.13
2019-05-29T10:05:34.818Z,2.67
2019-05-29T10:08:06.046Z,2.80
2019-05-29T10:10:36.853Z,2.87
2019-05-29T10:13:07.945Z,2.60
2019-05-29T10:15:38.797Z,2.58
2019-05-29T10:18:30.090Z,2.90
2019-05-29T10:20:42.682Z,2.90
2019-05-29T10:23:13.790Z,2.87
2019-05-29T10:25:44.647Z,2.73
2019-05-29T10:28:15.435Z,2.60
2019-05-29T10:30:48.292Z,2.70
2019-05-29T10:33:19.302Z,2.40
2019-05-29T10:35:53.302Z,2.40
2019-05-29T10:38:23.036Z,2.40
2019-05-29T10:41:05.198Z,2.63
2019-05-29T10:43:34.125Z,2.47
2019-05-29T10:45:59.341Z,2.73
2019-05-29T10:48:30.491Z,2.53
2019-05-29T10:51:01.319Z,2.60
2019-05-29T10:53:32.363Z,2.60
2019-05-29T10:56:03.446Z,2.40
2019-05-29T10:58:48.059Z,2.80
2019-05-29T11:01:07.387Z,2.90
2019-05-29T11:03:38.505Z,2.67
2019-05-29T11:06:09.282Z,2.60
2019-05-29T11:08:40.077Z,2.30
2019-05-29T11:11:11.377Z,2.97
2019-05-29T11:13:42.510Z,2.37
2019-05-29T11:16:13.363Z,2.07
2019-05-29T11:18:44.445Z,2.30
2019-05-29T11:21:15.381Z,2.70
2019-05-29T11:23:47.709Z,2.90
2019-05-29T11:26:18.607Z,2.77
2019-05-29T11:28:50.345Z,2.50
2019-05-29T11:31:21.169Z,2.60
2019-05-29T11:33:53.050Z,2.57
2019-05-29T11:36:24.011Z,2.70
2019-05-29T11:38:54.868Z,2.70
2019-05-29T11:41:26.862Z,2.70
2019-05-29T11:43:58.903Z,3.03
2019-05-29T11:46:29.951Z,2.60
2019-05-29T11:49:00.991Z,2.73
2019-05-29T11:51:32.023Z,2.83
2019-05-29T11:54:03.323Z,2.30
2019-05-29T11:56:34.658Z,2.43
2019-05-29T11:59:05.705Z,2.50
2019-05-29T12:01:49.549Z,2.40
2019-05-29T12:04:24.161Z,2.40
2019-05-29T12:06:41.690Z,2.47
2019-05-29T12:09:12.581Z,2.83
2019-05-29T12:11:43.892Z,2.70
2019-05-29T12:14:14.708Z,2.42
2019-05-29T12:16:46.263Z,2.92
2019-05-29T12:19:17.205Z,2.60
2019-05-29T12:21:48.085Z,2.40
2019-05-29T12:24:18.948Z,2.40
2019-05-29T12:26:49.974Z,2.45
2019-05-29T12:29:20.759Z,2.50
2019-05-29T12:31:52.841Z,2.60
2019-05-29T12:34:23.844Z,2.70
2019-05-29T12:36:55.356Z,2.83
2019-05-29T12:39:26.579Z,2.75
2019-05-29T12:41:57.652Z,3.07
2019-05-29T12:44:28.710Z,2.90
2019-05-29T12:46:59.904Z,2.80
2019-05-29T12:49:30.640Z,2.80
2019-05-29T12:52:02.000Z,2.57
2019-05-29T12:54:33.175Z,2.90
2019-05-29T12:57:04.308Z,2.77
2019-05-29T12:59:38.205Z,2.42
2019-05-29T13:02:09.179Z,2.60
2019-05-29T13:05:05.985Z,2.90
2019-05-29T13:07:12.740Z,2.70
2019-05-29T13:09:43.592Z,2.60
2019-05-29T13:12:15.329Z,2.50
2019-05-29T13:14:46.188Z,2.90
2019-05-29T13:17:17.044Z,2.80
2019-05-29T13:19:48.402Z,2.53
2019-05-29T13:22:19.569Z,2.80
2019-05-29T13:24:52.838Z,2.40
2019-05-29T13:27:24.019Z,2.60
2019-05-29T13:29:58.137Z,2.72
2019-05-29T13:32:27.756Z,2.70
2019-05-29T13:35:00.393Z,2.70
2019-05-29T13:37:31.206Z,2.80
2019-05-29T13:40:05.548Z,2.80
2019-05-29T13:42:34.987Z,2.87
2019-05-29T13:45:13.589Z,3.00
2019-05-29T13:47:38.868Z,3.10
2019-05-29T13:50:12.338Z,2.77
2019-05-29T13:52:42.638Z,2.62
2019-05-29T13:55:14.204Z,2.52
2019-05-29T13:57:45.063Z,2.60
2019-05-29T14:00:32.325Z,2.75
2019-05-29T14:02:48.916Z,2.80
2019-05-29T14:05:20.817Z,2.57
2019-05-29T14:07:51.660Z,2.53
2019-05-29T14:10:22.831Z,2.40
2019-05-29T14:12:54.099Z,2.35
2019-05-29T14:15:24.977Z,2.57
2019-05-29T14:17:55.746Z,2.70
2019-05-29T14:20:27.080Z,2.58
2019-05-29T14:22:58.397Z,2.70
2019-05-29T14:25:29.832Z,2.70
2019-05-29T14:28:00.898Z,2.67
2019-05-29T14:30:31.941Z,2.52
2019-05-29T14:33:04.435Z,2.90
2019-05-29T14:35:35.551Z,2.60
2019-05-29T14:38:10.763Z,2.58
2019-05-29T14:40:39.185Z,2.50
2019-05-29T14:43:14.892Z,2.40
2019-05-29T14:45:42.703Z,2.70
2019-05-29T14:48:13.554Z,2.52
2019-05-29T14:50:44.331Z,2.60
2019-05-29T14:53:15.865Z,2.70
2019-05-29T14:55:46.719Z,2.53
2019-05-29T14:58:17.497Z,2.70
2019-05-29T15:00:48.536Z,2.55
2019-05-29T15:03:19.385Z,2.60
2019-05-29T15:05:50.487Z,2.35
2019-05-29T15:08:21.345Z,2.70
2019-05-29T15:10:52.382Z,2.75
2019-05-29T15:13:23.169Z,2.50
2019-05-29T15:15:53.976Z,2.50
2019-05-29T15:18:24.752Z,2.60
2019-05-29T15:20:55.552Z,2.65
2019-05-29T15:23:26.325Z,2.60
2019-05-29T15:25:57.271Z,2.50
2019-05-29T15:28:28.407Z,2.37
2019-05-29T15:30:59.414Z,2.40
2019-05-29T15:33:30.438Z,2.30
2019-05-29T15:36:01.487Z,2.40
2019-05-29T15:38:32.250Z,2.30
2019-05-29T15:41:03.113Z,2.67
2019-05-29T15:43:33.887Z,2.50
2019-05-29T15:46:05.115Z,2.40
2019-05-29T15:48:36.124Z,2.20
2019-05-29T15:51:07.235Z,2.50
2019-05-29T15:53:38.009Z,2.30
2019-05-29T15:56:21.620Z,2.30
2019-05-29T15:58:41.579Z,2.58
2019-05-29T16:01:13.760Z,2.43
2019-05-29T16:03:44.653Z,2.50
2019-05-29T16:06:16.071Z,2.60
2019-05-29T16:08:47.071Z,2.50
2019-05-29T16:11:18.810Z,2.67
2019-05-29T16:13:50.917Z,2.52
2019-05-29T16:16:21.985Z,2.60
2019-05-29T16:18:52.756Z,2.27
2019-05-29T16:21:23.627Z,2.37
2019-05-29T16:23:54.661Z,2.50
2019-05-29T16:26:25.443Z,2.50
2019-05-29T16:28:56.282Z,2.50
2019-05-29T16:31:28.583Z,2.60
2019-05-29T16:34:00.435Z,2.33
2019-05-29T16:36:31.864Z,2.40
2019-05-29T16:39:03.005Z,2.30
2019-05-29T16:41:36.195Z,2.50
2019-05-29T16:44:07.045Z,2.33
2019-05-29T16:46:38.338Z,2.27
2019-05-29T16:49:09.204Z,2.30
2019-05-29T16:51:42.096Z,2.50
2019-05-29T16:54:12.956Z,2.50
2019-05-29T16:56:44.040Z,2.40
2019-05-29T16:59:14.979Z,2.40
2019-05-29T17:01:46.042Z,2.30
2019-05-29T17:04:17.695Z,1.98
2019-05-29T17:06:48.504Z,2.00
2019-05-29T17:09:20.284Z,2.45
2019-05-29T17:11:51.607Z,2.20
2019-05-29T17:14:22.885Z,2.33
2019-05-29T17:16:53.986Z,2.20
2019-05-29T17:19:25.563Z,2.15
2019-05-29T17:21:56.715Z,2.37
2019-05-29T17:24:27.821Z,2.05
2019-05-29T17:26:58.917Z,2.20
2019-05-29T17:29:29.755Z,2.30
2019-05-29T17:32:00.859Z,2.10
2019-05-29T17:34:31.881Z,2.10
2019-05-29T17:37:02.999Z,2.20
2019-05-29T17:39:34.908Z,2.50
2019-05-29T17:42:05.762Z,2.13
2019-05-29T17:44:36.771Z,2.00
2019-05-29T17:47:07.703Z,1.90
2019-05-29T17:49:39.124Z,2.00
2019-05-29T17:52:13.172Z,1.93
2019-05-29T17:54:44.121Z,2.00
2019-05-29T17:57:16.500Z,1.90
2019-05-29T17:59:47.383Z,1.80
2019-05-29T18:02:18.515Z,2.10
2019-05-29T18:04:49.635Z,1.80
2019-05-29T18:07:20.753Z,2.20
2019-05-29T18:09:51.571Z,2.00
2019-05-29T18:12:25.022Z,1.93
2019-05-29T18:14:55.895Z,1.90
2019-05-29T18:17:27.763Z,1.90
2019-05-29T18:19:59.184Z,2.00
2019-05-29T18:22:30.047Z,1.93
2019-05-29T18:25:01.051Z,2.00
2019-05-29T18:27:31.831Z,1.90
2019-05-29T18:30:02.931Z,1.80
2019-05-29T18:32:34.633Z,2.10
2019-05-29T18:35:06.335Z,1.90
2019-05-29T18:37:37.650Z,2.00
2019-05-29T18:40:12.437Z,2.00
2019-05-29T18:42:41.518Z,2.03
2019-05-29T18:45:20.880Z,2.03
2019-05-29T18:47:45.955Z,1.73
2019-05-29T18:50:17.089Z,2.13
2019-05-29T18:52:48.041Z,1.70
2019-05-29T18:55:19.125Z,1.63
2019-05-29T18:57:50.183Z,2.00
2019-05-29T19:00:21.559Z,1.90
2019-05-29T19:02:52.460Z,2.17
2019-05-29T19:05:23.941Z,3.10
2019-05-29T19:07:55.054Z,3.50
2019-05-29T19:10:26.013Z,3.00
2019-05-29T19:12:56.808Z,2.50
2019-05-29T19:15:28.039Z,2.57
2019-05-29T19:17:58.896Z,2.87
2019-05-29T19:20:30.489Z,20.40
2019-05-29T19:23:01.390Z,13.67
2019-05-29T19:25:33.035Z,3.00
2019-05-29T19:28:04.000Z,2.93
2019-05-29T19:30:34.962Z,2.40
2019-05-29T19:33:05.828Z,2.30
2019-05-29T19:35:36.960Z,2.30
2019-05-29T19:38:07.806Z,2.50
2019-05-29T19:40:38.592Z,3.30
2019-05-29T19:43:09.695Z,3.40
2019-05-29T19:45:41.120Z,3.60
2019-05-29T19:48:11.924Z,3.60
2019-05-29T19:50:42.707Z,2.73
2019-05-29T19:53:13.974Z,2.87
2019-05-29T19:55:45.084Z,2.50
2019-05-29T19:58:16.320Z,2.33
2019-05-29T20:00:47.552Z,2.30
2019-05-29T20:03:20.203Z,2.10
2019-05-29T20:05:51.305Z,2.30
2019-05-29T20:08:22.582Z,2.30
2019-05-29T20:10:53.444Z,2.20
2019-05-29T20:13:24.553Z,2.57
2019-05-29T20:15:55.610Z,2.60
2019-05-29T20:18:27.947Z,2.60
2019-05-29T20:20:59.058Z,2.33
2019-05-29T20:23:30.555Z,2.33
2019-05-29T20:26:01.328Z,2.10
2019-05-29T20:28:32.172Z,2.20
2019-05-29T20:31:03.239Z,2.33
2019-05-29T20:33:34.566Z,2.10
2019-05-29T20:36:05.536Z,2.10
2019-05-29T20:38:37.180Z,2.20
2019-05-29T20:41:07.960Z,2.20
2019-05-29T20:43:39.764Z,2.23
2019-05-29T20:46:10.616Z,2.30
2019-05-29T20:48:42.985Z,2.70
2019-05-29T20:51:13.775Z,2.47
2019-05-29T20:53:44.567Z,2.67
2019-05-29T20:56:15.353Z,2.83
2019-05-29T20:58:46.480Z,2.87
2019-05-29T21:01:17.579Z,2.70
2019-05-29T21:03:48.398Z,3.10
2019-05-29T21:06:19.777Z,3.30
2019-05-29T21:08:51.254Z,3.17
2019-05-29T21:11:22.110Z,3.50
2019-05-29T21:13:53.209Z,3.20
2019-05-29T21:16:24.335Z,3.23
2019-05-29T21:18:55.809Z,2.97
2019-05-29T21:21:26.960Z,3.00
2019-05-29T21:23:58.041Z,2.90
2019-05-29T21:26:29.566Z,3.20
2019-05-29T21:29:00.674Z,3.87
2019-05-29T21:31:31.572Z,3.03
2019-05-29T21:34:02.660Z,3.20
2019-05-29T21:36:33.991Z,3.20
2019-05-29T21:39:06.906Z,2.90
2019-05-29T21:41:38.369Z,3.23
2019-05-29T21:44:09.450Z,2.60
2019-05-29T21:46:40.959Z,2.57
2019-05-29T21:49:11.801Z,2.87
2019-05-29T21:51:43.632Z,2.50
2019-05-29T21:54:14.749Z,2.80
2019-05-29T21:56:45.902Z,2.60
2019-05-29T21:59:16.695Z,2.60
2019-05-29T22:01:48.373Z,2.77
2019-05-29T22:04:19.506Z,2.77
2019-05-29T22:06:50.620Z,3.23
2019-05-29T22:09:21.651Z,3.03
2019-05-29T22:11:52.702Z,3.30
2019-05-29T22:14:23.823Z,3.30
2019-05-29T22:16:54.970Z,3.93
2019-05-29T22:19:25.871Z,4.40
2019-05-29T22:21:57.159Z,4.73
2019-05-29T22:24:28.262Z,4.80
2019-05-29T22:26:59.389Z,5.00
2019-05-29T22:29:30.658Z,5.57
2019-05-29T22:32:01.744Z,4.20
2019-05-29T22:34:33.636Z,4.80
2019-05-29T22:37:04.575Z,4.37
2019-05-29T22:39:35.429Z,4.33
2019-05-29T22:42:07.297Z,3.70
2019-05-29T22:44:38.843Z,4.00
2019-05-29T22:47:10.284Z,3.90
2019-05-29T22:49:41.073Z,3.60
2019-05-29T22:52:12.347Z,3.67
2019-05-29T22:54:43.218Z,3.63
2019-05-29T22:57:14.388Z,3.30
2019-05-29T22:59:45.737Z,3.17
2019-05-29T23:02:16.524Z,3.50
2019-05-29T23:04:47.777Z,3.50
2019-05-29T23:07:18.646Z,3.50
2019-05-29T23:09:49.411Z,3.50
2019-05-29T23:12:20.513Z,3.27
2019-05-29T23:14:52.477Z,3.50
2019-05-29T23:17:24.330Z,3.80
2019-05-29T23:19:56.669Z,3.20
2019-05-29T23:22:27.488Z,3.40
2019-05-29T23:24:59.202Z,3.40
2019-05-29T23:27:30.337Z,3.33
2019-05-29T23:30:01.165Z,3.40
2019-05-29T23:32:31.993Z,3.97
2019-05-29T23:35:03.501Z,3.40
2019-05-29T23:37:34.375Z,3.90
2019-05-29T23:40:05.734Z,3.17
2019-05-29T23:42:36.608Z,3.40
2019-05-29T23:45:07.885Z,3.57
2019-05-29T23:47:38.773Z,3.23
2019-05-29T23:50:10.007Z,3.67
2019-05-29T23:52:40.806Z,3.47
2019-05-29T23:55:12.124Z,3.33
2019-05-29T23:57:42.990Z,3.47
